首页
METAR-TAF:

METAR-TAF

机场 :

登海尔德, 荷兰

纬度: 52-55N, 经度: 004-47E, 海拔: 0米

当前天气观测

该预报发布于6分钟前的21:25 UTC
风速12节,风向东转东北
温度 18°C
湿度 77%
气压 1012 hPa
能见度10公里或以上
阴天层高于15000英尺

METAR: EHKD 182125Z AUTO 06012KT 9999 OVC150 18/14 Q1012 BLU

时间: 23:31 (21:31 UTC)

预报

该预报发布于4小时和49分钟前的16:42 UTC
预报有效从18日的 17点(UTC)到 19日的 05点(UTC)
风速9节,风向北转东北
能见度10公里或以上
1500米以下无云,无积雨云
成为
从 18日的 18点(UTC)到 18日的 21点(UTC)
风速14节,风向东转东北
几率 30%
从 19日的 00点(UTC)到 19日的 05点(UTC)
散云层高于7000英尺, 积雨云.

TAF: EHKD 181642Z 1817/1905 03009KT CAVOK BECMG 1818/1821 07014KT PROB30 1900/1905 SCT070CB

超过4000个机场的气象观测和天气预报(METAR&TAF报告)。

可查询的气象台以黄色和红色小点在地图上表示。

将鼠标移到小点上方,可查看气象台名称。

然后点击查看天气观测和预报。

如需切换地图:点击带黑十字的绿色按钮放大地图;点击带横线的绿色按钮缩小地图;或者点击绿色箭头查看邻近地区的地图。


METAR-TAF: